Etusivu
METAR-TAF:

METAR-TAF

Lentoasemat :

Melun, Ranska

Leveyspiiri: 48-37N, Pituuspiiri: 002-41E, korkeus merenpinnasta: 95 m

Tämänhetkinen sää

Tämä raportti tehtiin 22 minuuttia sitten, kello 09.30 UTC
Tuuli 14 kn lounaasta
Lämpötila 8°C
Kosteus 93%
Ilmanpaine 1017 hPa
Näkyvyys 10 km tai enemmän

METAR: LFPM 170930Z AUTO 22014KT 9999 ////// 08/07 Q1017

Aika: 10:52 (09:52 UTC)


TAF: puuttuu

Säähavainnot ja -ennusteet yli 4000 lentoasemalta (METAR- ja TAF-raportit).

Käytössä olevat sääasemat on merkitty karttaan keltaisilla ja punaisilla pisteillä.

Aseta hiiri pisteen päälle nähdäksesi sääaseman nimen.

Klikkaa sitten nähdäksesi säähavainnot ja -ennusteet.

Kartan vaihtaminen: klikkaa mustalla rastilla varustettuja vihreitä pisteitä, niin voit zoomata sisään; viivalla varustettua vihreää pistettä, niin voit zoomata ulos tai vihreitä nuolia, niin pääset viereisille kartoille.


METAR-TAF: